Time;durP1;ratioP1;P1;durP2;ratioP2;P2;SDS_P1;SDS_P2;PMS_P1;PMS_P2;Temp;Humidity;BMP_temperature;BMP_pressure;BME280_temperature;BME280_humidity;BME280_pressure;Samples;Min_cycle;Max_cycle;Signal;HPM_P1;HPM_P2
2023/07/26 04:02:18;;;;;;;1.20;1.20;;;12.30;99.90;;;;;;5050681;23;20324;-69
2023/07/26 04:04:45;;;;;;;0.80;0.80;;;12.30;99.90;;;;;;4910840;29;20614;-69
2023/07/26 04:07:12;;;;;;;3.28;1.90;;;12.30;99.90;;;;;;4911748;29;20626;-69
2023/07/26 04:09:38;;;;;;;1.60;1.50;;;12.30;99.90;;;;;;4911664;29;20594;-69
2023/07/26 04:12:06;;;;;;;1.95;1.13;;;12.30;99.90;;;;;;4898054;29;20595;-69
2023/07/26 04:14:33;;;;;;;1.65;1.25;;;12.30;99.90;;;;;;4895013;29;20223;-70
2023/07/26 04:16:59;;;;;;;1.75;1.40;;;12.40;99.90;;;;;;4897840;29;20245;-69
2023/07/26 04:19:27;;;;;;;1.58;1.05;;;12.50;99.90;;;;;;4898430;29;20534;-69
2023/07/26 04:21:54;;;;;;;0.93;0.93;;;12.50;99.90;;;;;;4898130;29;20226;-69
2023/07/26 04:24:21;;;;;;;1.33;1.25;;;12.60;99.90;;;;;;4897695;29;20215;-69
2023/07/26 04:26:47;;;;;;;0.65;0.65;;;12.60;99.90;;;;;;4897357;29;20219;-70
2023/07/26 04:29:14;;;;;;;1.40;1.17;;;12.70;99.90;;;;;;4898137;29;20710;-71
2023/07/26 04:31:41;;;;;;;1.20;1.20;;;12.70;99.90;;;;;;4897628;29;20574;-70
2023/07/26 04:34:07;;;;;;;1.30;1.05;;;12.80;99.90;;;;;;4898163;29;20467;-70
2023/07/26 04:36:35;;;;;;;0.75;0.75;;;12.80;99.90;;;;;;4897372;29;20219;-69
2023/07/26 04:39:02;;;;;;;0.50;0.50;;;12.90;99.90;;;;;;4896222;29;20262;-70
2023/07/26 04:41:29;;;;;;;1.80;1.20;;;12.90;99.90;;;;;;4897028;29;21029;-69
2023/07/26 04:43:55;;;;;;;1.50;1.50;;;12.90;99.90;;;;;;4897092;29;20924;-70
2023/07/26 04:46:22;;;;;;;3.37;1.23;;;12.90;99.90;;;;;;4897657;29;21051;-70
2023/07/26 04:48:49;;;;;;;2.13;0.73;;;13.00;99.90;;;;;;4897817;29;20514;-69
2023/07/26 04:51:16;;;;;;;0.60;0.60;;;13.00;99.90;;;;;;4895638;29;20873;-70
2023/07/26 04:53:44;;;;;;;0.63;0.63;;;13.00;99.90;;;;;;4897703;29;20543;-69
2023/07/26 04:56:15;;;;;;;2.43;0.70;;;13.80;99.90;;;;;;4895594;29;20483;-69
2023/07/26 04:58:42;;;;;;;0.87;0.87;;;13.10;99.90;;;;;;4896910;29;21154;-70
2023/07/26 05:01:08;;;;;;;1.60;1.50;;;13.10;99.90;;;;;;4896403;29;20499;-69
2023/07/26 05:03:36;;;;;;;1.37;1.27;;;13.20;99.90;;;;;;4896346;29;20527;-70
2023/07/26 05:06:03;;;;;;;0.57;0.50;;;13.20;99.90;;;;;;4895816;29;20842;-70
2023/07/26 05:08:30;;;;;;;4.93;1.17;;;13.20;99.90;;;;;;4896555;29;20493;-70
2023/07/26 05:10:58;;;;;;;1.07;1.00;;;13.20;99.90;;;;;;4895423;29;20506;-69
2023/07/26 05:13:25;;;;;;;1.40;1.30;;;13.20;99.90;;;;;;4897119;29;20507;-69
2023/07/26 05:15:52;;;;;;;1.37;1.27;;;13.30;99.90;;;;;;4897127;29;20479;-71
2023/07/26 05:18:19;;;;;;;8.13;0.93;;;13.30;99.90;;;;;;4897162;29;20486;-70
2023/07/26 05:20:45;;;;;;;0.70;0.70;;;13.30;99.90;;;;;;4897309;29;20495;-70
2023/07/26 05:23:12;;;;;;;1.40;1.10;;;13.40;99.90;;;;;;4896393;29;20474;-70
2023/07/26 05:25:39;;;;;;;1.23;0.60;;;13.40;99.90;;;;;;4896557;29;20500;-70
2023/07/26 05:28:07;;;;;;;3.47;0.90;;;13.50;99.90;;;;;;4893576;29;24072;-70
2023/07/26 05:30:38;;;;;;;0.63;0.60;;;13.50;99.90;;;;;;4895081;29;20982;-70
2023/07/26 05:33:05;;;;;;;1.17;1.17;;;13.60;99.90;;;;;;4896892;29;20551;-70
2023/07/26 05:35:31;;;;;;;1.37;0.50;;;13.60;99.90;;;;;;4896776;29;20554;-70
2023/07/26 05:37:58;;;;;;;0.80;0.80;;;13.70;99.90;;;;;;4896524;29;20495;-70
2023/07/26 05:40:25;;;;;;;1.07;1.07;;;13.80;99.90;;;;;;4895578;29;20807;-70
2023/07/26 05:42:51;;;;;;;1.40;0.73;;;13.90;99.90;;;;;;4895852;29;20463;-70
2023/07/26 05:45:20;;;;;;;1.70;1.40;;;14.00;99.90;;;;;;4895685;29;20479;-70
2023/07/26 05:47:46;;;;;;;0.70;0.70;;;14.20;99.90;;;;;;4896956;29;20527;-68
2023/07/26 05:50:14;;;;;;;0.67;0.67;;;14.20;99.90;;;;;;4893429;29;20495;-69
2023/07/26 05:52:41;;;;;;;0.77;0.63;;;14.30;99.90;;;;;;4894827;29;20610;-69
2023/07/26 05:55:08;;;;;;;3.30;1.20;;;14.40;99.90;;;;;;4895873;29;20483;-69
2023/07/26 05:57:35;;;;;;;6.23;1.63;;;14.50;99.90;;;;;;4895114;29;20475;-69
2023/07/26 06:00:02;;;;;;;0.83;0.83;;;14.60;99.90;;;;;;4895251;29;20542;-68
2023/07/26 06:02:30;;;;;;;0.70;0.70;;;14.50;99.90;;;;;;4891920;29;20554;-68
2023/07/26 06:04:56;;;;;;;0.50;0.50;;;14.60;99.90;;;;;;4894918;29;20476;-68
2023/07/26 06:07:23;;;;;;;1.77;1.67;;;14.60;99.90;;;;;;4894313;29;20483;-69
2023/07/26 06:09:50;;;;;;;0.87;0.87;;;14.60;99.90;;;;;;4895467;29;20472;-68
2023/07/26 06:12:16;;;;;;;1.03;0.90;;;14.60;99.90;;;;;;4894577;29;20495;-68
2023/07/26 06:14:43;;;;;;;0.60;0.60;;;14.70;99.90;;;;;;4895037;29;20894;-68
2023/07/26 06:17:12;;;;;;;1.30;1.20;;;14.80;99.90;;;;;;4895892;29;20535;-68
2023/07/26 06:19:40;;;;;;;0.70;0.70;;;14.90;99.90;;;;;;4888874;29;20508;-67
2023/07/26 06:22:06;;;;;;;1.03;1.03;;;15.00;99.90;;;;;;4895759;29;20554;-68
2023/07/26 06:24:33;;;;;;;0.77;0.73;;;15.20;99.90;;;;;;4895828;29;20494;-68
2023/07/26 06:27:00;;;;;;;0.67;0.67;;;15.30;99.90;;;;;;4895327;29;20794;-68
2023/07/26 06:29:27;;;;;;;0.90;0.90;;;15.50;99.90;;;;;;4895738;29;20800;-68
2023/07/26 06:31:54;;;;;;;0.90;0.90;;;15.70;99.90;;;;;;4890808;29;20499;-67
2023/07/26 06:34:21;;;;;;;0.70;0.70;;;15.80;99.90;;;;;;4893012;29;20460;-68
2023/07/26 06:36:49;;;;;;;0.40;0.40;;;16.00;99.90;;;;;;4895691;29;20483;-68
2023/07/26 06:39:16;;;;;;;0.63;0.63;;;16.10;99.90;;;;;;4883359;29;20467;-71
2023/07/26 06:41:43;;;;;;;2.83;0.80;;;16.20;99.90;;;;;;4894966;29;20491;-69
2023/07/26 06:44:09;;;;;;;0.97;0.60;;;16.30;99.90;;;;;;4895450;29;20475;-68
2023/07/26 06:46:38;;;;;;;0.30;0.30;;;16.30;99.90;;;;;;4895524;29;20471;-68
2023/07/26 06:49:05;;;;;;;0.70;0.70;;;16.60;99.90;;;;;;4891475;29;20463;-67
2023/07/26 06:51:32;;;;;;;0.70;0.70;;;17.10;99.90;;;;;;4887351;29;20508;-68
2023/07/26 06:54:00;;;;;;;0.57;0.57;;;17.40;99.90;;;;;;4890606;29;20484;-67
2023/07/26 06:56:27;;;;;;;0.97;0.97;;;17.40;99.90;;;;;;4893224;29;20889;-68
2023/07/26 06:58:54;;;;;;;0.50;0.50;;;17.20;99.90;;;;;;4892912;29;20471;-68
2023/07/26 07:01:20;;;;;;;0.97;0.83;;;17.10;99.90;;;;;;4890387;29;20583;-68
2023/07/26 07:03:47;;;;;;;2.23;0.70;;;17.00;99.90;;;;;;4895220;29;20563;-68
2023/07/26 07:06:15;;;;;;;0.70;0.57;;;17.00;99.90;;;;;;4894315;29;21997;-68
2023/07/26 07:08:42;;;;;;;1.83;0.70;;;16.90;99.90;;;;;;4893321;29;20471;-67
2023/07/26 07:11:10;;;;;;;3.10;0.80;;;17.10;99.90;;;;;;4892638;29;20496;-68
2023/07/26 07:13:37;;;;;;;0.80;0.80;;;17.20;99.90;;;;;;4892207;29;20844;-67
2023/07/26 07:16:04;;;;;;;0.80;0.80;;;17.60;99.90;;;;;;4893878;29;20484;-68
2023/07/26 07:18:31;;;;;;;0.50;0.50;;;18.40;99.90;;;;;;4894447;29;20499;-68
2023/07/26 07:21:00;;;;;;;2.43;1.00;;;19.40;99.90;;;;;;4895363;29;20480;-67
2023/07/26 07:23:29;;;;;;;0.70;0.70;;;20.40;99.90;;;;;;4895169;29;20478;-68
2023/07/26 07:25:56;;;;;;;1.07;0.50;;;21.00;99.90;;;;;;4893959;29;20656;-67
2023/07/26 07:28:24;;;;;;;1.23;0.87;;;21.10;99.90;;;;;;4895018;29;20485;-68
2023/07/26 07:30:51;;;;;;;0.83;0.83;;;21.70;99.90;;;;;;4890799;29;20508;-68
2023/07/26 07:33:17;;;;;;;0.30;0.30;;;21.90;99.90;;;;;;4887878;29;20535;-68
2023/07/26 07:35:44;;;;;;;0.50;0.43;;;22.10;99.90;;;;;;4893376;29;20522;-68
2023/07/26 07:38:10;;;;;;;0.50;0.50;;;22.40;99.90;;;;;;4894232;29;20490;-68
2023/07/26 07:40:37;;;;;;;0.90;0.90;;;22.00;99.90;;;;;;4894703;29;20570;-67
2023/07/26 07:43:04;;;;;;;0.67;0.67;;;21.90;99.90;;;;;;4891879;29;20467;-67
2023/07/26 07:45:32;;;;;;;0.60;0.60;;;21.90;99.90;;;;;;4892777;29;20507;-69
2023/07/26 07:47:59;;;;;;;0.73;0.73;;;21.90;99.90;;;;;;4892154;29;20466;-69
2023/07/26 07:50:26;;;;;;;0.83;0.83;;;21.80;99.90;;;;;;4895915;29;20469;-69
2023/07/26 07:52:52;;;;;;;0.40;0.40;;;21.40;99.90;;;;;;4897474;29;20555;-68
2023/07/26 07:55:19;;;;;;;1.13;0.47;;;20.70;99.90;;;;;;4898410;29;20474;-70
2023/07/26 07:57:46;;;;;;;1.27;0.50;;;20.20;99.90;;;;;;4897953;29;20472;-68
2023/07/26 08:00:13;;;;;;;0.50;0.50;;;20.20;99.90;;;;;;4898624;29;21034;-69
2023/07/26 08:02:42;;;;;;;0.30;0.30;;;21.00;99.90;;;;;;4896743;29;20473;-67
2023/07/26 08:05:10;;;;;;;0.50;0.50;;;21.20;99.90;;;;;;4897300;29;20514;-71
2023/07/26 08:07:36;;;;;;;0.70;0.70;;;21.20;99.90;;;;;;4898122;29;20472;-68
2023/07/26 08:10:04;;;;;;;1.17;1.17;;;21.10;99.90;;;;;;4898266;29;20496;-68
2023/07/26 08:12:34;;;;;;;0.73;0.60;;;20.80;99.90;;;;;;4896921;29;20577;-68
2023/07/26 08:15:01;;;;;;;0.50;0.50;;;20.40;99.90;;;;;;4897968;29;20471;-69
2023/07/26 08:17:27;;;;;;;0.67;0.60;;;20.30;99.90;;;;;;4898369;29;20499;-69
2023/07/26 08:19:55;;;;;;;0.30;0.30;;;20.70;99.90;;;;;;4898475;29;20471;-69
2023/07/26 08:22:22;;;;;;;0.60;0.60;;;21.00;99.90;;;;;;4898225;29;20550;-68
2023/07/26 08:24:52;;;;;;;1.50;0.80;;;21.10;99.90;;;;;;4897886;29;20840;-68
2023/07/26 08:27:19;;;;;;;2.57;1.00;;;21.00;99.90;;;;;;4897941;29;20568;-68
2023/07/26 08:29:45;;;;;;;1.03;0.87;;;20.80;99.90;;;;;;4897780;29;20475;-68
2023/07/26 08:32:12;;;;;;;0.50;0.50;;;20.70;99.90;;;;;;4897948;29;20498;-68
2023/07/26 08:34:39;;;;;;;1.00;0.87;;;20.50;99.90;;;;;;4897965;29;20499;-67
2023/07/26 08:37:08;;;;;;;6.07;0.80;;;20.20;99.90;;;;;;4895005;29;20476;-68
2023/07/26 08:39:35;;;;;;;0.60;0.47;;;19.90;99.90;;;;;;4890101;29;20894;-67
2023/07/26 08:42:02;;;;;;;3.50;0.80;;;19.70;99.90;;;;;;4895179;29;20486;-69
2023/07/26 08:44:30;;;;;;;0.43;0.43;;;19.70;99.90;;;;;;4897233;29;20467;-69
2023/07/26 08:46:58;;;;;;;0.60;0.60;;;19.90;99.90;;;;;;4893537;29;20475;-68
2023/07/26 08:49:25;;;;;;;0.67;0.67;;;20.20;99.90;;;;;;4897632;29;20467;-68
2023/07/26 08:51:52;;;;;;;0.60;0.40;;;20.50;99.90;;;;;;4892159;29;20557;-69
2023/07/26 08:54:20;;;;;;;0.50;0.50;;;20.70;99.90;;;;;;4893363;29;20911;-68
2023/07/26 08:56:48;;;;;;;1.07;1.07;;;20.70;99.90;;;;;;4892277;29;20471;-68
2023/07/26 08:59:14;;;;;;;1.43;0.60;;;20.60;99.90;;;;;;4896234;29;20554;-68
2023/07/26 09:01:41;;;;;;;0.53;0.53;;;20.50;99.90;;;;;;4889756;29;20831;-68
2023/07/26 09:04:10;;;;;;;0.67;0.67;;;20.40;99.90;;;;;;4893200;29;20544;-68
2023/07/26 09:06:39;;;;;;;0.77;0.77;;;20.20;99.90;;;;;;4895728;29;20566;-68
2023/07/26 09:09:07;;;;;;;0.80;0.80;;;20.30;99.90;;;;;;4897243;29;20555;-67
2023/07/26 09:11:35;;;;;;;0.40;0.40;;;20.30;99.90;;;;;;4894957;29;20590;-67
2023/07/26 09:14:04;;;;;;;0.70;0.40;;;20.40;99.90;;;;;;4896708;29;20470;-69
2023/07/26 09:16:32;;;;;;;0.47;0.47;;;20.60;99.90;;;;;;4896145;29;20483;-68
2023/07/26 09:19:00;;;;;;;0.67;0.67;;;20.90;99.90;;;;;;4896935;29;20538;-69
2023/07/26 09:21:28;;;;;;;0.37;0.37;;;21.00;99.90;;;;;;4894342;29;20527;-69
2023/07/26 09:23:55;;;;;;;0.40;0.40;;;21.30;99.90;;;;;;4895138;29;20859;-69
2023/07/26 09:26:36;;;;;;;1.43;0.80;;;21.20;99.90;;;;;;4894602;29;20477;-69
2023/07/26 09:29:06;;;;;;;1.00;1.00;;;20.90;99.90;;;;;;4895916;29;20463;-69
2023/07/26 09:31:34;;;;;;;1.27;0.43;;;20.50;99.90;;;;;;4896249;29;20646;-69
2023/07/26 09:34:04;;;;;;;0.60;0.60;;;20.50;99.90;;;;;;4893366;29;20501;-68
2023/07/26 09:36:42;;;;;;;0.83;0.83;;;20.60;99.90;;;;;;4896787;29;20933;-68
2023/07/26 09:39:08;;;;;;;0.60;0.60;;;20.50;99.90;;;;;;4894806;29;20475;-68
2023/07/26 09:41:37;;;;;;;0.50;0.50;;;20.40;99.90;;;;;;4895957;29;21009;-68
2023/07/26 09:44:05;;;;;;;2.37;0.90;;;20.20;99.90;;;;;;4896811;29;20485;-68
2023/07/26 09:46:45;;;;;;;0.50;0.50;;;20.10;99.90;;;;;;4895480;29;20482;-68
2023/07/26 09:49:12;;;;;;;0.63;0.63;;;20.10;99.90;;;;;;4893987;29;20486;-69
2023/07/26 09:51:41;;;;;;;0.67;0.60;;;20.20;99.90;;;;;;4888319;29;21295;-68
2023/07/26 09:54:09;;;;;;;0.33;0.33;;;20.30;99.90;;;;;;4884749;29;20483;-68
2023/07/26 09:56:39;;;;;;;3.70;0.73;;;20.60;99.90;;;;;;4885977;29;20530;-68
2023/07/26 09:59:09;;;;;;;0.70;0.70;;;20.70;99.90;;;;;;4889106;29;20478;-69
2023/07/26 10:01:40;;;;;;;8.23;0.80;;;20.70;99.90;;;;;;4887490;29;20495;-68
2023/07/26 10:04:11;;;;;;;0.73;0.67;;;20.60;99.90;;;;;;4887890;29;20544;-69
2023/07/26 10:06:38;;;;;;;0.40;0.40;;;20.30;99.90;;;;;;4895523;29;20489;-69
2023/07/26 10:09:05;;;;;;;0.57;0.57;;;20.00;99.90;;;;;;4892731;29;20485;-69
2023/07/26 10:11:33;;;;;;;0.40;0.40;;;19.60;99.90;;;;;;4883454;29;20468;-69
2023/07/26 10:14:02;;;;;;;0.57;0.57;;;19.30;99.90;;;;;;4895662;29;20468;-69
2023/07/26 10:16:29;;;;;;;4.07;0.73;;;19.00;99.90;;;;;;4928542;23;20572;-74
2023/07/26 10:18:59;;;;;;;5.90;0.67;;;19.00;99.90;;;;;;4917845;29;20461;-74
2023/07/26 10:21:27;;;;;;;0.53;0.53;;;19.10;99.90;;;;;;4908296;29;20475;-76
2023/07/26 10:23:58;;;;;;;0.40;0.40;;;19.10;99.90;;;;;;4911695;29;20470;-73
2023/07/26 10:26:27;;;;;;;0.80;0.80;;;19.00;99.90;;;;;;4899412;29;20668;-73
2023/07/26 10:28:59;;;;;;;0.90;0.90;;;19.30;99.90;;;;;;4904382;29;20498;-75
2023/07/26 10:31:28;;;;;;;3.03;0.70;;;19.70;99.90;;;;;;4909997;29;20495;-75
2023/07/26 10:33:55;;;;;;;0.50;0.50;;;19.90;99.90;;;;;;4913089;29;20474;-74
2023/07/26 10:36:27;;;;;;;1.07;1.07;;;20.20;99.90;;;;;;4895215;29;21055;-72
2023/07/26 10:38:54;;;;;;;0.97;0.90;;;20.20;99.90;;;;;;4895148;29;21001;-72
2023/07/26 10:41:22;;;;;;;0.57;0.57;;;20.00;99.90;;;;;;4910210;29;20472;-73
2023/07/26 10:43:50;;;;;;;0.30;0.30;;;20.00;99.90;;;;;;4911940;29;20607;-73
2023/07/26 10:46:18;;;;;;;1.07;1.07;;;19.70;99.90;;;;;;4902283;29;20493;-73
2023/07/26 10:48:46;;;;;;;0.67;0.67;;;19.60;99.90;;;;;;4902531;29;20500;-73
2023/07/26 10:51:27;;;;;;;0.83;0.83;;;19.40;99.90;;;;;;4894241;29;20465;-73
2023/07/26 10:53:54;;;;;;;0.50;0.50;;;19.30;99.90;;;;;;4895702;29;20472;-73
2023/07/26 10:56:24;;;;;;;0.70;0.70;;;19.30;99.90;;;;;;4894501;29;20573;-74
2023/07/26 10:58:53;;;;;;;0.80;0.60;;;19.30;99.90;;;;;;4882067;29;20476;-73
2023/07/26 11:01:36;;;;;;;1.27;0.53;;;19.30;99.90;;;;;;4893217;29;20486;-74
2023/07/26 11:04:10;;;;;;;0.80;0.80;;;19.30;99.90;;;;;;4889014;29;20471;-73
2023/07/26 11:06:52;;;;;;;1.10;1.10;;;19.20;99.90;;;;;;4894004;29;20531;-73
2023/07/26 11:09:25;;;;;;;0.50;0.50;;;19.00;99.90;;;;;;4907015;29;20852;-73
2023/07/26 11:11:53;;;;;;;1.13;0.50;;;18.70;99.90;;;;;;4910603;29;20495;-74
2023/07/26 11:14:20;;;;;;;0.67;0.67;;;18.70;99.90;;;;;;4886653;29;20843;-74
2023/07/26 11:16:47;;;;;;;0.73;0.73;;;18.80;99.90;;;;;;4903770;29;21110;-74
2023/07/26 11:19:15;;;;;;;0.67;0.67;;;18.90;99.90;;;;;;4900179;29;20499;-74
2023/07/26 11:21:42;;;;;;;0.90;0.90;;;19.00;99.90;;;;;;4907756;29;20474;-73
2023/07/26 11:24:10;;;;;;;2.10;0.90;;;19.00;99.90;;;;;;4898591;29;20479;-73
2023/07/26 11:26:42;;;;;;;0.67;0.67;;;18.90;99.90;;;;;;4897230;29;20562;-73
2023/07/26 11:29:10;;;;;;;0.50;0.50;;;18.80;99.90;;;;;;4901262;29;20498;-73
2023/07/26 11:31:37;;;;;;;0.40;0.40;;;19.00;99.90;;;;;;4876315;29;20501;-73
2023/07/26 11:34:19;;;;;;;0.50;0.50;;;19.10;99.90;;;;;;4882928;29;20583;-73
2023/07/26 11:36:46;;;;;;;0.43;0.43;;;19.20;99.90;;;;;;4895379;29;20467;-73
2023/07/26 11:39:20;;;;;;;0.90;0.90;;;19.50;99.90;;;;;;4889737;29;20500;-73
2023/07/26 11:41:47;;;;;;;1.30;1.30;;;19.70;99.90;;;;;;4896007;29;20517;-74
2023/07/26 11:44:14;;;;;;;3.23;0.80;;;19.70;99.90;;;;;;4898574;29;21005;-74
2023/07/26 11:46:43;;;;;;;0.50;0.50;;;20.00;99.90;;;;;;4902623;29;20499;-74
2023/07/26 11:49:12;;;;;;;0.33;0.30;;;20.10;99.90;;;;;;4889606;29;20509;-74
2023/07/26 11:51:40;;;;;;;0.53;0.53;;;20.20;99.90;;;;;;4888064;29;20483;-74
2023/07/26 11:54:11;;;;;;;0.40;0.40;;;20.20;99.90;;;;;;4902596;29;20473;-73
2023/07/26 11:56:38;;;;;;;0.67;0.67;;;20.00;99.90;;;;;;4890161;29;20510;-73
2023/07/26 11:59:05;;;;;;;0.57;0.57;;;19.80;99.90;;;;;;4910377;29;20495;-73
2023/07/26 12:01:33;;;;;;;0.63;0.63;;;19.50;99.90;;;;;;4897048;29;20480;-74
2023/07/26 12:04:01;;;;;;;0.80;0.80;;;19.10;99.90;;;;;;4896828;29;20477;-74
2023/07/26 12:06:30;;;;;;;0.70;0.60;;;18.70;99.90;;;;;;4913020;29;20624;-73
2023/07/26 12:09:09;;;;;;;2.67;0.77;;;18.40;99.90;;;;;;4906337;29;20798;-73
2023/07/26 12:11:36;;;;;;;0.57;0.40;;;18.10;99.90;;;;;;4900076;29;20471;-73
2023/07/26 12:14:02;;;;;;;0.73;0.53;;;18.00;99.90;;;;;;4887915;29;20494;-72
2023/07/26 12:16:30;;;;;;;0.83;0.83;;;17.90;99.90;;;;;;4895238;29;20494;-72
2023/07/26 12:19:00;;;;;;;0.40;0.40;;;18.20;99.90;;;;;;4913678;29;20969;-73
2023/07/26 12:21:28;;;;;;;0.30;0.30;;;18.30;99.90;;;;;;4900527;29;20540;-75
2023/07/26 12:23:56;;;;;;;0.50;0.50;;;18.30;99.90;;;;;;4890723;29;20930;-73
2023/07/26 12:26:25;;;;;;;0.60;0.60;;;18.40;99.90;;;;;;4884952;29;20491;-75
2023/07/26 12:28:53;;;;;;;0.60;0.60;;;18.60;99.90;;;;;;4886205;29;20884;-74
2023/07/26 12:31:22;;;;;;;0.20;0.20;;;18.80;99.90;;;;;;4905487;29;20853;-73
2023/07/26 12:33:59;;;;;;;0.83;0.83;;;18.90;99.90;;;;;;4903366;29;20486;-72
2023/07/26 12:36:29;;;;;;;0.60;0.60;;;19.00;99.90;;;;;;4890309;29;21007;-73
2023/07/26 12:38:56;;;;;;;0.50;0.50;;;19.10;99.90;;;;;;4885631;29;20480;-70
2023/07/26 12:41:26;;;;;;;1.73;0.70;;;19.20;99.90;;;;;;4900370;29;20472;-71
2023/07/26 12:43:53;;;;;;;0.70;0.70;;;19.40;99.90;;;;;;4891823;29;20481;-71
2023/07/26 12:46:20;;;;;;;0.60;0.60;;;19.60;99.90;;;;;;4899918;29;20494;-73
2023/07/26 12:48:47;;;;;;;0.30;0.30;;;19.80;99.90;;;;;;4894354;29;20658;-72
2023/07/26 12:51:15;;;;;;;0.60;0.60;;;20.10;99.90;;;;;;4892537;29;20703;-71
2023/07/26 12:53:43;;;;;;;0.53;0.53;;;20.40;99.90;;;;;;4893410;29;20494;-71
2023/07/26 12:56:10;;;;;;;0.67;0.67;;;20.70;99.90;;;;;;4905997;29;20489;-72
2023/07/26 12:58:38;;;;;;;0.40;0.40;;;20.70;99.90;;;;;;4902526;29;20479;-70
2023/07/26 13:01:04;;;;;;;3.70;0.77;;;20.70;99.90;;;;;;4904093;29;20475;-72
2023/07/26 13:03:31;;;;;;;0.97;0.93;;;20.60;99.90;;;;;;4911940;29;20980;-71
2023/07/26 13:05:59;;;;;;;0.80;0.80;;;20.20;99.90;;;;;;4909553;29;20493;-71
2023/07/26 13:08:25;;;;;;;0.47;0.47;;;19.80;99.90;;;;;;4896267;29;20480;-70
2023/07/26 13:10:52;;;;;;;2.77;0.90;;;18.30;99.90;;;;;;4905183;29;20877;-70
2023/07/26 13:13:19;;;;;;;0.60;0.30;;;16.60;99.90;;;;;;4905519;29;20834;-69
2023/07/26 13:15:47;;;;;;;0.83;0.70;;;15.30;99.90;;;;;;4900572;29;20512;-69
2023/07/26 13:18:14;;;;;;;0.60;0.60;;;14.90;99.90;;;;;;4886070;29;21090;-68
2023/07/26 13:20:41;;;;;;;0.50;0.40;;;14.80;99.90;;;;;;4897090;29;20550;-69
2023/07/26 13:23:08;;;;;;;0.77;0.77;;;14.60;99.90;;;;;;4895666;29;20475;-69
2023/07/26 13:25:34;;;;;;;0.93;0.50;;;14.60;99.90;;;;;;4904091;29;21057;-70
2023/07/26 13:28:01;;;;;;;0.70;0.70;;;14.50;99.90;;;;;;4895374;29;20474;-72
2023/07/26 13:30:28;;;;;;;0.50;0.50;;;14.50;99.90;;;;;;4896397;29;20889;-72
2023/07/26 13:32:56;;;;;;;0.43;0.43;;;14.50;99.90;;;;;;4878271;29;20518;-72
2023/07/26 13:35:23;;;;;;;1.27;1.27;;;14.50;99.90;;;;;;4892707;29;20499;-72
2023/07/26 13:37:50;;;;;;;3.00;0.57;;;14.50;99.90;;;;;;4901168;29;20475;-72
2023/07/26 13:40:18;;;;;;;0.33;0.33;;;14.50;99.90;;;;;;4898345;29;20846;-72
2023/07/26 13:42:45;;;;;;;0.53;0.53;;;14.60;99.90;;;;;;4888424;29;20858;-72
2023/07/26 13:45:12;;;;;;;0.97;0.97;;;14.70;99.90;;;;;;4902444;29;20523;-72
2023/07/26 13:47:39;;;;;;;0.77;0.77;;;14.80;99.90;;;;;;4885590;29;20478;-72
2023/07/26 13:50:07;;;;;;;0.40;0.30;;;15.10;99.90;;;;;;4904176;29;20833;-73
2023/07/26 13:52:34;;;;;;;0.63;0.63;;;15.20;99.90;;;;;;4903861;29;20470;-73
2023/07/26 13:55:01;;;;;;;0.80;0.50;;;15.40;99.90;;;;;;4896480;29;20483;-73
2023/07/26 13:57:28;;;;;;;0.53;0.53;;;15.50;99.90;;;;;;4890480;29;20469;-72
2023/07/26 13:59:54;;;;;;;0.33;0.33;;;15.60;99.90;;;;;;4890925;29;20467;-72
2023/07/26 14:02:22;;;;;;;0.97;0.97;;;15.80;99.90;;;;;;4898801;29;20471;-72
2023/07/26 14:04:48;;;;;;;0.50;0.50;;;16.00;99.90;;;;;;4888665;29;20574;-72
2023/07/26 14:07:16;;;;;;;1.10;1.00;;;16.10;99.90;;;;;;4895444;29;20479;-73
2023/07/26 14:09:43;;;;;;;0.83;0.50;;;16.20;99.90;;;;;;4903624;29;20471;-72
2023/07/26 14:12:10;;;;;;;0.77;0.77;;;16.30;99.90;;;;;;4894594;29;20996;-72
2023/07/26 14:14:37;;;;;;;1.07;0.80;;;16.30;99.90;;;;;;4901038;29;20519;-72
2023/07/26 14:17:05;;;;;;;0.87;0.50;;;16.30;99.90;;;;;;4903719;29;20578;-71
2023/07/26 14:19:32;;;;;;;0.30;0.30;;;16.20;99.90;;;;;;4896728;29;20464;-71
2023/07/26 14:21:59;;;;;;;0.70;0.70;;;16.20;99.90;;;;;;4892842;29;20489;-71
2023/07/26 14:24:27;;;;;;;0.57;0.57;;;16.30;99.90;;;;;;4897623;29;20582;-71
2023/07/26 14:26:54;;;;;;;0.60;0.60;;;16.40;99.90;;;;;;4897133;29;20813;-72
2023/07/26 14:29:21;;;;;;;0.97;0.87;;;16.50;99.90;;;;;;4908304;29;20473;-72
2023/07/26 14:31:49;;;;;;;0.30;0.30;;;16.70;99.90;;;;;;4915042;29;20482;-72
2023/07/26 14:34:16;;;;;;;0.83;0.80;;;16.70;99.90;;;;;;4910764;29;20959;-72
2023/07/26 14:36:43;;;;;;;0.40;0.40;;;16.90;99.90;;;;;;4902537;29;20531;-72
2023/07/26 14:39:09;;;;;;;0.47;0.47;;;17.20;99.90;;;;;;4896354;29;20471;-72
2023/07/26 14:41:37;;;;;;;0.97;0.60;;;17.20;99.90;;;;;;4887479;29;20475;-72
2023/07/26 14:44:05;;;;;;;0.80;0.80;;;17.10;99.90;;;;;;4897577;29;20482;-73
2023/07/26 14:46:32;;;;;;;0.30;0.30;;;17.10;99.90;;;;;;4893555;29;20479;-72
2023/07/26 14:48:59;;;;;;;1.07;1.07;;;17.10;99.90;;;;;;4896250;29;20474;-72
2023/07/26 14:51:25;;;;;;;0.70;0.70;;;17.20;99.90;;;;;;4902883;29;20522;-72
2023/07/26 14:53:52;;;;;;;0.73;0.73;;;17.30;99.90;;;;;;4903520;29;20526;-70
2023/07/26 14:56:19;;;;;;;0.73;0.73;;;17.40;99.90;;;;;;4905274;29;20494;-71
2023/07/26 14:58:47;;;;;;;1.70;0.70;;;17.60;99.90;;;;;;4893440;29;20490;-71
2023/07/26 15:01:14;;;;;;;0.57;0.57;;;17.70;99.90;;;;;;4895602;29;20479;-71
2023/07/26 15:03:40;;;;;;;0.90;0.90;;;17.60;99.90;;;;;;4897301;29;20480;-71
2023/07/26 15:06:07;;;;;;;0.30;0.30;;;17.70;99.90;;;;;;4896687;29;20575;-71
2023/07/26 15:08:34;;;;;;;0.60;0.60;;;17.70;99.90;;;;;;4903973;29;20482;-72
2023/07/26 15:11:00;;;;;;;0.50;0.50;;;17.70;99.90;;;;;;4905549;29;20478;-71
2023/07/26 15:13:27;;;;;;;0.50;0.50;;;17.80;99.90;;;;;;4907901;29;20857;-71
2023/07/26 15:15:55;;;;;;;1.43;1.30;;;17.80;99.90;;;;;;4890352;29;21002;-71
2023/07/26 15:18:24;;;;;;;0.67;0.67;;;17.90;99.90;;;;;;4895386;29;20471;-71
2023/07/26 15:20:50;;;;;;;0.70;0.70;;;18.00;99.90;;;;;;4898870;29;20476;-71
2023/07/26 15:23:17;;;;;;;0.50;0.50;;;18.00;99.90;;;;;;4895274;29;20211;-71
2023/07/26 15:25:44;;;;;;;2.73;0.90;;;18.00;99.90;;;;;;4899870;29;20494;-71
2023/07/26 15:28:10;;;;;;;0.37;0.30;;;18.10;99.90;;;;;;4905446;29;20886;-71
2023/07/26 15:30:37;;;;;;;0.70;0.70;;;18.20;99.90;;;;;;4907925;29;20479;-71
2023/07/26 15:33:07;;;;;;;0.43;0.43;;;18.30;99.90;;;;;;4910380;29;20463;-71
2023/07/26 15:35:34;;;;;;;0.50;0.50;;;18.40;99.90;;;;;;4904197;29;20542;-71
2023/07/26 15:38:01;;;;;;;0.70;0.70;;;18.40;99.90;;;;;;4905976;29;20961;-71
2023/07/26 15:40:27;;;;;;;0.57;0.57;;;18.30;99.90;;;;;;4891707;29;20471;-71
2023/07/26 15:42:54;;;;;;;0.57;0.57;;;18.30;99.90;;;;;;4894525;29;20465;-71
2023/07/26 15:45:21;;;;;;;0.57;0.57;;;18.30;99.90;;;;;;4901042;29;20503;-72
2023/07/26 15:47:48;;;;;;;0.47;0.47;;;18.30;99.90;;;;;;4898370;29;20468;-70
2023/07/26 15:50:16;;;;;;;0.40;0.30;;;18.20;99.90;;;;;;4903747;29;20480;-70
2023/07/26 15:52:43;;;;;;;0.60;0.60;;;18.10;99.90;;;;;;4904404;29;20468;-71
2023/07/26 15:55:10;;;;;;;1.90;0.77;;;18.00;99.90;;;;;;4910193;29;20504;-71
2023/07/26 15:57:36;;;;;;;0.80;0.80;;;17.80;99.90;;;;;;4905421;29;20474;-71
2023/07/26 16:00:04;;;;;;;0.47;0.47;;;17.70;99.90;;;;;;4914831;29;20469;-70
2023/07/26 16:02:31;;;;;;;0.50;0.50;;;17.50;99.90;;;;;;4914372;29;20812;-71
2023/07/26 16:04:58;;;;;;;0.40;0.40;;;17.40;99.90;;;;;;4907715;29;20491;-70
2023/07/26 16:07:26;;;;;;;1.10;1.00;;;17.20;99.90;;;;;;4897409;29;20882;-70
2023/07/26 16:09:52;;;;;;;0.63;0.60;;;17.00;99.90;;;;;;4903412;29;20478;-70
2023/07/26 16:12:19;;;;;;;0.87;0.87;;;16.90;99.90;;;;;;4910177;29;20829;-71
2023/07/26 16:14:46;;;;;;;0.30;0.30;;;16.80;99.90;;;;;;4912037;29;20811;-70
2023/07/26 16:17:12;;;;;;;0.40;0.40;;;16.80;99.90;;;;;;4945532;23;21044;-69
2023/07/26 16:19:39;;;;;;;0.50;0.50;;;16.80;99.90;;;;;;4921272;29;20466;-71
2023/07/26 16:22:06;;;;;;;0.67;0.67;;;16.80;99.90;;;;;;4914977;29;20474;-71
2023/07/26 16:24:34;;;;;;;0.90;0.90;;;16.80;99.90;;;;;;4921483;29;20466;-69
2023/07/26 16:27:01;;;;;;;1.60;0.97;;;16.80;99.90;;;;;;4895350;29;20491;-69
2023/07/26 16:29:28;;;;;;;0.70;0.70;;;16.90;99.90;;;;;;4893946;29;20493;-70
2023/07/26 16:31:54;;;;;;;1.07;1.07;;;16.90;99.90;;;;;;4908780;29;20478;-69
2023/07/26 16:34:21;;;;;;;1.30;1.30;;;17.00;99.90;;;;;;4898913;29;20495;-69
2023/07/26 16:36:48;;;;;;;1.00;1.00;;;17.00;99.90;;;;;;4894766;29;20494;-69
2023/07/26 16:39:14;;;;;;;1.00;1.00;;;17.10;99.90;;;;;;4894893;29;20475;-69
2023/07/26 16:41:42;;;;;;;0.70;0.70;;;17.20;99.90;;;;;;4897094;29;20474;-68
2023/07/26 16:44:09;;;;;;;1.13;1.13;;;17.30;99.90;;;;;;4894311;29;20476;-69
2023/07/26 16:46:36;;;;;;;1.07;0.57;;;17.40;99.90;;;;;;4910269;29;20497;-69
2023/07/26 16:49:03;;;;;;;1.40;1.40;;;17.40;99.90;;;;;;4916881;29;20471;-69
2023/07/26 16:51:29;;;;;;;0.73;0.73;;;17.40;99.90;;;;;;4900288;29;20523;-68